sensor_id;sensor_type;location;lat;lon;timestamp;P1;durP1;ratioP1;P2;durP2;ratioP2
39778;SDS011;25454;49.878;8.618;2022-07-29T00:00:57;5.27;;;1.90;;
39778;SDS011;25454;49.878;8.618;2022-07-29T00:05:58;6.20;;;2.07;;
39778;SDS011;25454;49.878;8.618;2022-07-29T00:10:59;4.83;;;1.90;;
39778;SDS011;25454;49.878;8.618;2022-07-29T00:16:00;5.10;;;1.80;;
39778;SDS011;25454;49.878;8.618;2022-07-29T00:21:01;3.10;;;2.13;;
39778;SDS011;25454;49.878;8.618;2022-07-29T00:26:02;5.40;;;1.80;;
39778;SDS011;25454;49.878;8.618;2022-07-29T00:31:03;4.10;;;1.87;;
39778;SDS011;25454;49.878;8.618;2022-07-29T00:36:04;4.07;;;2.00;;
39778;SDS011;25454;49.878;8.618;2022-07-29T00:41:06;6.03;;;1.83;;
39778;SDS011;25454;49.878;8.618;2022-07-29T00:46:07;3.73;;;1.60;;
39778;SDS011;25454;49.878;8.618;2022-07-29T00:51:08;6.00;;;1.80;;
39778;SDS011;25454;49.878;8.618;2022-07-29T00:56:10;2.57;;;1.70;;
39778;SDS011;25454;49.878;8.618;2022-07-29T01:01:11;6.07;;;1.80;;
39778;SDS011;25454;49.878;8.618;2022-07-29T01:06:12;4.33;;;2.00;;
39778;SDS011;25454;49.878;8.618;2022-07-29T01:11:13;4.83;;;1.90;;
39778;SDS011;25454;49.878;8.618;2022-07-29T01:16:19;5.97;;;2.00;;
39778;SDS011;25454;49.878;8.618;2022-07-29T01:21:24;7.10;;;2.10;;
39778;SDS011;25454;49.878;8.618;2022-07-29T01:27:12;6.07;;;2.20;;
39778;SDS011;25454;49.878;8.618;2022-07-29T01:31:59;3.80;;;1.80;;
39778;SDS011;25454;49.878;8.618;2022-07-29T01:37:07;9.40;;;2.20;;
39778;SDS011;25454;49.878;8.618;2022-07-29T01:42:14;7.40;;;1.83;;
39778;SDS011;25454;49.878;8.618;2022-07-29T01:47:19;14.63;;;2.93;;
39778;SDS011;25454;49.878;8.618;2022-07-29T01:52:23;9.17;;;3.23;;
39778;SDS011;25454;49.878;8.618;2022-07-29T01:57:27;10.17;;;2.97;;
39778;SDS011;25454;49.878;8.618;2022-07-29T02:02:28;4.17;;;2.40;;
39778;SDS011;25454;49.878;8.618;2022-07-29T02:07:31;5.23;;;2.03;;
39778;SDS011;25454;49.878;8.618;2022-07-29T02:12:33;8.03;;;2.20;;
39778;SDS011;25454;49.878;8.618;2022-07-29T02:17:39;4.00;;;1.93;;
39778;SDS011;25454;49.878;8.618;2022-07-29T02:22:41;4.07;;;2.37;;
39778;SDS011;25454;49.878;8.618;2022-07-29T02:27:44;5.60;;;2.20;;
39778;SDS011;25454;49.878;8.618;2022-07-29T02:32:46;5.20;;;2.30;;
39778;SDS011;25454;49.878;8.618;2022-07-29T02:37:51;4.33;;;1.80;;
39778;SDS011;25454;49.878;8.618;2022-07-29T02:43:12;6.83;;;2.30;;
39778;SDS011;25454;49.878;8.618;2022-07-29T02:48:14;4.33;;;2.13;;
39778;SDS011;25454;49.878;8.618;2022-07-29T02:53:20;7.63;;;2.40;;
39778;SDS011;25454;49.878;8.618;2022-07-29T02:58:33;3.87;;;2.00;;
39778;SDS011;25454;49.878;8.618;2022-07-29T03:03:36;4.13;;;2.23;;
39778;SDS011;25454;49.878;8.618;2022-07-29T03:08:37;5.23;;;2.50;;
39778;SDS011;25454;49.878;8.618;2022-07-29T03:13:39;5.60;;;2.20;;
39778;SDS011;25454;49.878;8.618;2022-07-29T03:18:40;7.93;;;2.50;;
39778;SDS011;25454;49.878;8.618;2022-07-29T03:23:45;5.60;;;2.13;;
39778;SDS011;25454;49.878;8.618;2022-07-29T03:28:46;6.10;;;2.43;;
39778;SDS011;25454;49.878;8.618;2022-07-29T03:33:47;8.23;;;2.60;;
39778;SDS011;25454;49.878;8.618;2022-07-29T03:38:48;7.30;;;2.40;;
39778;SDS011;25454;49.878;8.618;2022-07-29T03:43:52;6.37;;;2.77;;
39778;SDS011;25454;49.878;8.618;2022-07-29T03:48:55;6.23;;;2.53;;
39778;SDS011;25454;49.878;8.618;2022-07-29T03:53:57;6.33;;;2.53;;
39778;SDS011;25454;49.878;8.618;2022-07-29T03:58:58;5.73;;;2.10;;
39778;SDS011;25454;49.878;8.618;2022-07-29T04:03:59;5.53;;;2.17;;
39778;SDS011;25454;49.878;8.618;2022-07-29T04:09:01;6.07;;;2.37;;
39778;SDS011;25454;49.878;8.618;2022-07-29T04:14:05;4.00;;;2.33;;
39778;SDS011;25454;49.878;8.618;2022-07-29T04:19:06;6.00;;;2.50;;
39778;SDS011;25454;49.878;8.618;2022-07-29T04:24:07;6.13;;;2.50;;
39778;SDS011;25454;49.878;8.618;2022-07-29T04:29:08;9.57;;;2.70;;
39778;SDS011;25454;49.878;8.618;2022-07-29T04:34:11;9.40;;;2.37;;
39778;SDS011;25454;49.878;8.618;2022-07-29T04:39:13;8.13;;;2.47;;
39778;SDS011;25454;49.878;8.618;2022-07-29T04:44:14;4.00;;;2.27;;
39778;SDS011;25454;49.878;8.618;2022-07-29T04:49:15;7.70;;;2.30;;
39778;SDS011;25454;49.878;8.618;2022-07-29T04:54:16;5.30;;;2.07;;
39778;SDS011;25454;49.878;8.618;2022-07-29T04:59:18;11.17;;;3.20;;
39778;SDS011;25454;49.878;8.618;2022-07-29T05:04:19;4.50;;;2.20;;
39778;SDS011;25454;49.878;8.618;2022-07-29T05:09:20;6.53;;;2.50;;
39778;SDS011;25454;49.878;8.618;2022-07-29T05:14:21;5.90;;;2.70;;
39778;SDS011;25454;49.878;8.618;2022-07-29T05:19:22;5.10;;;2.40;;
39778;SDS011;25454;49.878;8.618;2022-07-29T05:24:23;7.50;;;2.63;;
39778;SDS011;25454;49.878;8.618;2022-07-29T05:29:25;5.37;;;2.33;;
39778;SDS011;25454;49.878;8.618;2022-07-29T05:34:26;9.73;;;3.30;;
39778;SDS011;25454;49.878;8.618;2022-07-29T05:39:30;10.33;;;2.80;;
39778;SDS011;25454;49.878;8.618;2022-07-29T05:44:35;3.73;;;2.60;;
39778;SDS011;25454;49.878;8.618;2022-07-29T05:49:36;11.37;;;2.87;;
39778;SDS011;25454;49.878;8.618;2022-07-29T05:54:37;11.73;;;3.10;;
39778;SDS011;25454;49.878;8.618;2022-07-29T05:59:38;14.03;;;3.40;;
39778;SDS011;25454;49.878;8.618;2022-07-29T06:04:39;8.93;;;3.00;;
39778;SDS011;25454;49.878;8.618;2022-07-29T06:09:40;6.80;;;2.90;;
39778;SDS011;25454;49.878;8.618;2022-07-29T06:14:41;6.93;;;3.20;;
39778;SDS011;25454;49.878;8.618;2022-07-29T06:19:42;14.00;;;3.43;;
39778;SDS011;25454;49.878;8.618;2022-07-29T06:24:43;8.63;;;3.07;;
39778;SDS011;25454;49.878;8.618;2022-07-29T06:29:44;21.90;;;3.30;;
39778;SDS011;25454;49.878;8.618;2022-07-29T06:34:45;6.63;;;3.23;;
39778;SDS011;25454;49.878;8.618;2022-07-29T06:39:46;5.73;;;3.20;;
39778;SDS011;25454;49.878;8.618;2022-07-29T06:44:47;7.00;;;3.20;;
39778;SDS011;25454;49.878;8.618;2022-07-29T06:49:48;6.37;;;3.40;;
39778;SDS011;25454;49.878;8.618;2022-07-29T06:54:49;6.37;;;2.97;;
39778;SDS011;25454;49.878;8.618;2022-07-29T06:59:50;4.37;;;2.97;;
39778;SDS011;25454;49.878;8.618;2022-07-29T07:04:51;5.97;;;3.10;;
39778;SDS011;25454;49.878;8.618;2022-07-29T07:09:52;5.73;;;3.17;;
39778;SDS011;25454;49.878;8.618;2022-07-29T07:14:53;12.97;;;3.20;;
39778;SDS011;25454;49.878;8.618;2022-07-29T07:19:54;6.77;;;2.97;;
39778;SDS011;25454;49.878;8.618;2022-07-29T07:24:55;8.80;;;3.37;;
39778;SDS011;25454;49.878;8.618;2022-07-29T07:29:56;3.73;;;2.73;;
39778;SDS011;25454;49.878;8.618;2022-07-29T07:34:57;36.77;;;4.23;;
39778;SDS011;25454;49.878;8.618;2022-07-29T07:39:58;5.70;;;2.43;;
39778;SDS011;25454;49.878;8.618;2022-07-29T07:44:59;7.30;;;3.00;;
39778;SDS011;25454;49.878;8.618;2022-07-29T07:50:08;9.77;;;3.50;;
39778;SDS011;25454;49.878;8.618;2022-07-29T07:55:09;4.43;;;2.70;;
39778;SDS011;25454;49.878;8.618;2022-07-29T08:00:11;4.20;;;2.50;;
39778;SDS011;25454;49.878;8.618;2022-07-29T08:05:12;12.63;;;3.60;;
39778;SDS011;25454;49.878;8.618;2022-07-29T08:10:17;8.20;;;3.13;;
39778;SDS011;25454;49.878;8.618;2022-07-29T08:15:38;6.03;;;3.23;;
39778;SDS011;25454;49.878;8.618;2022-07-29T08:20:40;4.93;;;2.90;;
39778;SDS011;25454;49.878;8.618;2022-07-29T08:25:41;4.37;;;2.50;;
39778;SDS011;25454;49.878;8.618;2022-07-29T08:30:42;7.97;;;3.20;;
39778;SDS011;25454;49.878;8.618;2022-07-29T08:35:46;5.73;;;2.90;;
39778;SDS011;25454;49.878;8.618;2022-07-29T08:40:47;10.33;;;3.60;;
39778;SDS011;25454;49.878;8.618;2022-07-29T08:45:49;4.27;;;2.60;;
39778;SDS011;25454;49.878;8.618;2022-07-29T08:50:54;4.73;;;2.80;;
39778;SDS011;25454;49.878;8.618;2022-07-29T08:56:01;8.43;;;2.60;;
39778;SDS011;25454;49.878;8.618;2022-07-29T09:01:03;6.83;;;2.87;;
39778;SDS011;25454;49.878;8.618;2022-07-29T09:06:07;6.13;;;2.60;;
39778;SDS011;25454;49.878;8.618;2022-07-29T09:11:08;6.70;;;2.30;;
39778;SDS011;25454;49.878;8.618;2022-07-29T09:16:11;4.70;;;2.50;;
39778;SDS011;25454;49.878;8.618;2022-07-29T09:21:13;4.27;;;2.40;;
39778;SDS011;25454;49.878;8.618;2022-07-29T09:26:34;5.97;;;2.70;;
39778;SDS011;25454;49.878;8.618;2022-07-29T09:31:39;3.97;;;2.93;;
39778;SDS011;25454;49.878;8.618;2022-07-29T09:36:47;4.00;;;2.77;;
39778;SDS011;25454;49.878;8.618;2022-07-29T09:41:52;5.17;;;2.90;;
39778;SDS011;25454;49.878;8.618;2022-07-29T09:46:58;4.07;;;2.95;;
39778;SDS011;25454;49.878;8.618;2022-07-29T09:52:07;6.38;;;2.88;;
39778;SDS011;25454;49.878;8.618;2022-07-29T09:57:09;5.43;;;2.80;;
39778;SDS011;25454;49.878;8.618;2022-07-29T10:02:12;5.53;;;3.33;;
39778;SDS011;25454;49.878;8.618;2022-07-29T10:07:13;6.65;;;3.13;;
39778;SDS011;25454;49.878;8.618;2022-07-29T10:12:14;6.63;;;3.05;;
39778;SDS011;25454;49.878;8.618;2022-07-29T10:17:16;4.22;;;2.75;;
39778;SDS011;25454;49.878;8.618;2022-07-29T10:22:18;4.70;;;3.10;;
39778;SDS011;25454;49.878;8.618;2022-07-29T10:27:19;4.75;;;3.00;;
39778;SDS011;25454;49.878;8.618;2022-07-29T10:32:24;7.57;;;3.30;;
39778;SDS011;25454;49.878;8.618;2022-07-29T10:42:47;5.60;;;2.80;;
39778;SDS011;25454;49.878;8.618;2022-07-29T10:47:47;6.47;;;3.08;;
39778;SDS011;25454;49.878;8.618;2022-07-29T11:03:09;4.68;;;2.72;;
39778;SDS011;25454;49.878;8.618;2022-07-29T11:24:11;4.53;;;2.95;;
39778;SDS011;25454;49.878;8.618;2022-07-29T11:29:19;8.23;;;2.80;;
39778;SDS011;25454;49.878;8.618;2022-07-29T11:34:23;4.60;;;3.00;;
39778;SDS011;25454;49.878;8.618;2022-07-29T11:39:28;9.95;;;3.05;;
39778;SDS011;25454;49.878;8.618;2022-07-29T11:44:53;7.03;;;2.95;;
39778;SDS011;25454;49.878;8.618;2022-07-29T11:49:50;7.93;;;3.13;;
39778;SDS011;25454;49.878;8.618;2022-07-29T11:54:51;6.20;;;3.17;;
39778;SDS011;25454;49.878;8.618;2022-07-29T11:59:54;6.30;;;2.93;;
39778;SDS011;25454;49.878;8.618;2022-07-29T12:04:56;4.93;;;3.17;;
39778;SDS011;25454;49.878;8.618;2022-07-29T12:09:59;5.23;;;3.60;;
39778;SDS011;25454;49.878;8.618;2022-07-29T12:15:18;9.30;;;3.00;;
39778;SDS011;25454;49.878;8.618;2022-07-29T12:20:27;4.00;;;3.10;;
39778;SDS011;25454;49.878;8.618;2022-07-29T12:25:32;3.60;;;3.20;;
39778;SDS011;25454;49.878;8.618;2022-07-29T12:30:37;3.10;;;2.80;;
39778;SDS011;25454;49.878;8.618;2022-07-29T12:35:39;6.50;;;3.33;;
39778;SDS011;25454;49.878;8.618;2022-07-29T12:40:41;7.17;;;3.50;;
39778;SDS011;25454;49.878;8.618;2022-07-29T12:46:12;7.27;;;3.30;;
39778;SDS011;25454;49.878;8.618;2022-07-29T12:51:04;8.80;;;2.90;;
39778;SDS011;25454;49.878;8.618;2022-07-29T12:56:09;3.87;;;2.70;;
39778;SDS011;25454;49.878;8.618;2022-07-29T13:01:16;4.07;;;2.80;;
39778;SDS011;25454;49.878;8.618;2022-07-29T13:11:41;4.77;;;2.90;;
39778;SDS011;25454;49.878;8.618;2022-07-29T13:22:02;4.33;;;2.60;;
39778;SDS011;25454;49.878;8.618;2022-07-29T13:27:03;5.07;;;2.80;;
39778;SDS011;25454;49.878;8.618;2022-07-29T13:32:04;6.07;;;2.90;;
39778;SDS011;25454;49.878;8.618;2022-07-29T13:37:05;3.10;;;2.80;;
39778;SDS011;25454;49.878;8.618;2022-07-29T13:42:06;6.63;;;2.87;;
39778;SDS011;25454;49.878;8.618;2022-07-29T13:47:08;5.10;;;3.27;;
39778;SDS011;25454;49.878;8.618;2022-07-29T13:52:12;4.23;;;2.90;;
39778;SDS011;25454;49.878;8.618;2022-07-29T13:57:14;4.33;;;2.57;;
39778;SDS011;25454;49.878;8.618;2022-07-29T14:02:21;4.07;;;3.17;;
39778;SDS011;25454;49.878;8.618;2022-07-29T14:07:22;5.87;;;3.07;;
39778;SDS011;25454;49.878;8.618;2022-07-29T14:12:23;5.23;;;2.77;;
39778;SDS011;25454;49.878;8.618;2022-07-29T14:17:27;4.70;;;3.10;;
39778;SDS011;25454;49.878;8.618;2022-07-29T14:22:31;4.47;;;3.20;;
39778;SDS011;25454;49.878;8.618;2022-07-29T14:27:33;4.40;;;2.80;;
39778;SDS011;25454;49.878;8.618;2022-07-29T14:32:34;4.83;;;2.87;;
39778;SDS011;25454;49.878;8.618;2022-07-29T14:37:35;7.60;;;3.00;;
39778;SDS011;25454;49.878;8.618;2022-07-29T14:42:36;5.20;;;3.10;;
39778;SDS011;25454;49.878;8.618;2022-07-29T14:47:38;3.60;;;2.63;;
39778;SDS011;25454;49.878;8.618;2022-07-29T14:52:39;13.67;;;2.93;;
39778;SDS011;25454;49.878;8.618;2022-07-29T14:57:40;4.23;;;2.97;;
39778;SDS011;25454;49.878;8.618;2022-07-29T15:02:41;4.07;;;2.60;;
39778;SDS011;25454;49.878;8.618;2022-07-29T15:07:43;5.33;;;2.90;;
39778;SDS011;25454;49.878;8.618;2022-07-29T15:12:44;10.90;;;3.17;;
39778;SDS011;25454;49.878;8.618;2022-07-29T15:17:46;10.23;;;3.10;;
39778;SDS011;25454;49.878;8.618;2022-07-29T15:22:50;5.40;;;3.00;;
39778;SDS011;25454;49.878;8.618;2022-07-29T15:27:51;6.47;;;3.10;;
39778;SDS011;25454;49.878;8.618;2022-07-29T15:32:52;10.80;;;2.90;;
39778;SDS011;25454;49.878;8.618;2022-07-29T15:37:53;7.33;;;2.77;;
39778;SDS011;25454;49.878;8.618;2022-07-29T15:42:54;9.80;;;2.80;;
39778;SDS011;25454;49.878;8.618;2022-07-29T15:47:55;5.20;;;3.00;;
39778;SDS011;25454;49.878;8.618;2022-07-29T15:52:56;4.37;;;2.57;;
39778;SDS011;25454;49.878;8.618;2022-07-29T15:57:57;6.40;;;2.80;;
39778;SDS011;25454;49.878;8.618;2022-07-29T16:03:01;5.70;;;2.50;;
39778;SDS011;25454;49.878;8.618;2022-07-29T16:08:02;8.43;;;2.73;;
39778;SDS011;25454;49.878;8.618;2022-07-29T16:13:06;5.87;;;2.63;;
39778;SDS011;25454;49.878;8.618;2022-07-29T16:18:07;3.73;;;2.37;;
39778;SDS011;25454;49.878;8.618;2022-07-29T16:23:09;6.20;;;2.67;;
39778;SDS011;25454;49.878;8.618;2022-07-29T16:28:11;4.43;;;2.80;;
39778;SDS011;25454;49.878;8.618;2022-07-29T16:33:12;3.70;;;3.27;;
39778;SDS011;25454;49.878;8.618;2022-07-29T16:38:13;8.50;;;3.30;;
39778;SDS011;25454;49.878;8.618;2022-07-29T16:43:14;8.80;;;3.33;;
39778;SDS011;25454;49.878;8.618;2022-07-29T16:48:15;4.83;;;3.50;;
39778;SDS011;25454;49.878;8.618;2022-07-29T16:53:16;7.37;;;4.20;;
39778;SDS011;25454;49.878;8.618;2022-07-29T16:58:17;5.23;;;3.30;;
39778;SDS011;25454;49.878;8.618;2022-07-29T17:03:18;5.07;;;3.50;;
39778;SDS011;25454;49.878;8.618;2022-07-29T17:08:19;3.43;;;3.13;;
39778;SDS011;25454;49.878;8.618;2022-07-29T17:13:20;8.03;;;3.50;;
39778;SDS011;25454;49.878;8.618;2022-07-29T17:18:23;5.73;;;3.37;;
39778;SDS011;25454;49.878;8.618;2022-07-29T17:23:24;5.90;;;3.17;;
39778;SDS011;25454;49.878;8.618;2022-07-29T17:28:25;3.00;;;2.70;;
39778;SDS011;25454;49.878;8.618;2022-07-29T17:33:26;2.97;;;2.70;;
39778;SDS011;25454;49.878;8.618;2022-07-29T17:38:27;3.70;;;2.80;;
39778;SDS011;25454;49.878;8.618;2022-07-29T17:43:28;5.57;;;2.70;;
39778;SDS011;25454;49.878;8.618;2022-07-29T17:48:32;4.33;;;2.70;;
39778;SDS011;25454;49.878;8.618;2022-07-29T17:53:34;4.07;;;2.50;;
39778;SDS011;25454;49.878;8.618;2022-07-29T17:58:36;5.17;;;3.20;;
39778;SDS011;25454;49.878;8.618;2022-07-29T18:03:37;4.37;;;3.20;;
39778;SDS011;25454;49.878;8.618;2022-07-29T18:08:39;2.87;;;2.57;;
39778;SDS011;25454;49.878;8.618;2022-07-29T18:13:40;5.93;;;2.33;;
39778;SDS011;25454;49.878;8.618;2022-07-29T18:18:44;5.37;;;2.63;;
39778;SDS011;25454;49.878;8.618;2022-07-29T18:23:45;7.87;;;2.77;;
39778;SDS011;25454;49.878;8.618;2022-07-29T18:28:49;6.20;;;2.90;;
39778;SDS011;25454;49.878;8.618;2022-07-29T18:33:50;5.67;;;2.80;;
39778;SDS011;25454;49.878;8.618;2022-07-29T18:38:51;2.87;;;2.50;;
39778;SDS011;25454;49.878;8.618;2022-07-29T18:43:52;9.77;;;3.97;;
39778;SDS011;25454;49.878;8.618;2022-07-29T18:48:56;4.63;;;3.07;;
39778;SDS011;25454;49.878;8.618;2022-07-29T18:53:58;4.47;;;3.00;;
39778;SDS011;25454;49.878;8.618;2022-07-29T18:58:59;4.23;;;2.83;;
39778;SDS011;25454;49.878;8.618;2022-07-29T19:04:00;3.40;;;3.10;;
39778;SDS011;25454;49.878;8.618;2022-07-29T19:09:01;3.87;;;3.00;;
39778;SDS011;25454;49.878;8.618;2022-07-29T19:14:03;4.07;;;3.20;;
39778;SDS011;25454;49.878;8.618;2022-07-29T19:19:04;4.57;;;3.70;;
39778;SDS011;25454;49.878;8.618;2022-07-29T19:24:06;6.37;;;3.17;;
39778;SDS011;25454;49.878;8.618;2022-07-29T19:29:07;4.93;;;3.20;;
39778;SDS011;25454;49.878;8.618;2022-07-29T19:34:08;7.40;;;3.47;;
39778;SDS011;25454;49.878;8.618;2022-07-29T19:39:09;3.87;;;3.30;;
39778;SDS011;25454;49.878;8.618;2022-07-29T19:44:10;6.80;;;3.43;;
39778;SDS011;25454;49.878;8.618;2022-07-29T19:49:11;6.60;;;4.47;;
39778;SDS011;25454;49.878;8.618;2022-07-29T19:54:12;4.33;;;3.10;;
39778;SDS011;25454;49.878;8.618;2022-07-29T19:59:17;5.53;;;3.40;;
39778;SDS011;25454;49.878;8.618;2022-07-29T20:04:24;5.17;;;3.30;;
39778;SDS011;25454;49.878;8.618;2022-07-29T20:09:28;8.03;;;3.30;;
39778;SDS011;25454;49.878;8.618;2022-07-29T20:14:29;4.77;;;3.53;;
39778;SDS011;25454;49.878;8.618;2022-07-29T20:19:30;5.60;;;3.17;;
39778;SDS011;25454;49.878;8.618;2022-07-29T20:24:32;3.43;;;3.13;;
39778;SDS011;25454;49.878;8.618;2022-07-29T20:29:33;3.30;;;3.00;;
39778;SDS011;25454;49.878;8.618;2022-07-29T20:34:34;4.13;;;3.47;;
39778;SDS011;25454;49.878;8.618;2022-07-29T20:39:35;4.57;;;3.50;;
39778;SDS011;25454;49.878;8.618;2022-07-29T20:44:36;4.13;;;3.73;;
39778;SDS011;25454;49.878;8.618;2022-07-29T20:49:37;4.30;;;3.40;;
39778;SDS011;25454;49.878;8.618;2022-07-29T20:54:38;5.27;;;3.30;;
39778;SDS011;25454;49.878;8.618;2022-07-29T20:59:39;6.03;;;3.57;;
39778;SDS011;25454;49.878;8.618;2022-07-29T21:04:42;5.87;;;3.90;;
39778;SDS011;25454;49.878;8.618;2022-07-29T21:09:43;5.07;;;3.90;;
39778;SDS011;25454;49.878;8.618;2022-07-29T21:14:44;5.10;;;3.80;;
39778;SDS011;25454;49.878;8.618;2022-07-29T21:19:45;6.00;;;4.70;;
39778;SDS011;25454;49.878;8.618;2022-07-29T21:24:46;5.47;;;4.00;;
39778;SDS011;25454;49.878;8.618;2022-07-29T21:29:48;5.77;;;4.00;;
39778;SDS011;25454;49.878;8.618;2022-07-29T21:34:49;7.13;;;3.87;;
39778;SDS011;25454;49.878;8.618;2022-07-29T21:39:50;5.40;;;4.27;;
39778;SDS011;25454;49.878;8.618;2022-07-29T21:44:51;5.60;;;3.70;;
39778;SDS011;25454;49.878;8.618;2022-07-29T21:49:55;5.10;;;3.90;;
39778;SDS011;25454;49.878;8.618;2022-07-29T21:54:56;5.17;;;4.10;;
39778;SDS011;25454;49.878;8.618;2022-07-29T21:59:57;4.97;;;4.47;;
39778;SDS011;25454;49.878;8.618;2022-07-29T22:04:58;5.17;;;4.10;;
39778;SDS011;25454;49.878;8.618;2022-07-29T22:09:58;4.60;;;4.10;;
39778;SDS011;25454;49.878;8.618;2022-07-29T22:14:59;4.73;;;4.03;;
39778;SDS011;25454;49.878;8.618;2022-07-29T22:20:04;6.97;;;3.80;;
39778;SDS011;25454;49.878;8.618;2022-07-29T22:25:05;5.23;;;3.80;;
39778;SDS011;25454;49.878;8.618;2022-07-29T22:30:06;4.17;;;3.60;;
39778;SDS011;25454;49.878;8.618;2022-07-29T22:35:11;3.67;;;3.37;;
39778;SDS011;25454;49.878;8.618;2022-07-29T22:40:12;4.13;;;3.40;;
39778;SDS011;25454;49.878;8.618;2022-07-29T22:45:13;4.00;;;3.40;;
39778;SDS011;25454;49.878;8.618;2022-07-29T22:50:14;5.00;;;3.47;;
39778;SDS011;25454;49.878;8.618;2022-07-29T22:55:15;4.43;;;3.63;;
39778;SDS011;25454;49.878;8.618;2022-07-29T23:00:16;3.83;;;3.30;;
39778;SDS011;25454;49.878;8.618;2022-07-29T23:05:17;3.63;;;3.30;;
39778;SDS011;25454;49.878;8.618;2022-07-29T23:10:18;4.60;;;3.50;;
39778;SDS011;25454;49.878;8.618;2022-07-29T23:15:21;4.97;;;3.20;;
39778;SDS011;25454;49.878;8.618;2022-07-29T23:20:22;5.53;;;3.67;;
39778;SDS011;25454;49.878;8.618;2022-07-29T23:25:23;5.27;;;3.40;;
39778;SDS011;25454;49.878;8.618;2022-07-29T23:30:27;4.07;;;3.63;;
39778;SDS011;25454;49.878;8.618;2022-07-29T23:35:28;4.50;;;4.10;;
39778;SDS011;25454;49.878;8.618;2022-07-29T23:40:29;4.47;;;3.97;;
39778;SDS011;25454;49.878;8.618;2022-07-29T23:45:30;4.43;;;4.03;;
39778;SDS011;25454;49.878;8.618;2022-07-29T23:50:31;4.97;;;4.13;;
39778;SDS011;25454;49.878;8.618;2022-07-29T23:55:32;4.97;;;4.37;;
